Time;durP1;ratioP1;P1;durP2;ratioP2;P2;SDS_P1;SDS_P2;PMS_P1;PMS_P2;Temp;Humidity;BMP_temperature;BMP_pressure;BME280_temperature;BME280_humidity;BME280_pressure;Samples;Min_cycle;Max_cycle;Signal;HPM_P1;HPM_P2
2022/08/28 00:00:31;;;;;;;;;;;;;;;18.63;100.00;99978.06;3057958;19;976;-50
2022/08/28 00:01:36;;;;;;;;;;;;;;;18.61;100.00;99972.81;3057272;19;1838;-50
2022/08/28 00:02:37;;;;;;;;;;;;;;;18.60;100.00;99975.66;3057858;19;937;-51
2022/08/28 00:03:42;;;;;;;;;;;;;;;18.58;100.00;99969.59;3057907;19;913;-50
2022/08/28 00:04:44;;;;;;;;;;;;;;;18.57;100.00;99975.97;3058078;19;917;-48
2022/08/28 00:05:48;;;;;;;;;;;;;;;18.56;100.00;99976.97;3058099;19;881;-50
2022/08/28 00:06:51;;;;;;;;;;;;;;;18.54;100.00;99970.88;3058151;19;1006;-51
2022/08/28 00:07:55;;;;;;;;;;;;;;;18.53;100.00;99979.97;3058171;19;947;-51
2022/08/28 00:08:57;;;;;;;;;;;;;;;18.52;100.00;99981.84;3057454;19;1323;-51
2022/08/28 00:10:02;;;;;;;;;;;;;;;18.51;100.00;99973.88;3058322;19;909;-51
2022/08/28 00:11:04;;;;;;;;;;;;;;;18.50;100.00;99980.28;3057813;19;766;-51
2022/08/28 00:12:08;;;;;;;;;;;;;;;18.47;100.00;99969.81;3058186;19;948;-49
2022/08/28 00:13:17;;;;;;;;;;;;;;;18.46;100.00;99971.66;3057690;19;936;-49
2022/08/28 00:14:22;;;;;;;;;;;;;;;18.45;100.00;99971.81;3058131;19;865;-50
2022/08/28 00:15:26;;;;;;;;;;;;;;;18.44;100.00;99975.53;3057803;19;921;-49
2022/08/28 00:16:30;;;;;;;;;;;;;;;18.42;100.00;99975.69;3058005;19;973;-51
2022/08/28 00:17:32;;;;;;;;;;;;;;;18.41;100.00;99970.44;3057852;19;877;-49
2022/08/28 00:18:36;;;;;;;;;;;;;;;18.39;100.00;99967.88;3057918;19;913;-49
2022/08/28 00:19:38;;;;;;;;;;;;;;;18.39;100.00;99962.47;3057782;19;968;-50
2022/08/28 00:20:43;;;;;;;;;;;;;;;18.30;100.00;99958.03;3058104;19;932;-51
2022/08/28 00:21:45;;;;;;;;;;;;;;;18.35;100.00;99966.53;3057170;19;1856;-51
2022/08/28 00:22:50;;;;;;;;;;;;;;;18.33;100.00;99953.16;3057077;19;889;-49
2022/08/28 00:23:52;;;;;;;;;;;;;;;18.32;100.00;99973.06;3056963;19;921;-49
2022/08/28 00:24:56;;;;;;;;;;;;;;;18.30;100.00;99953.47;3058012;19;1036;-50
2022/08/28 00:25:58;;;;;;;;;;;;;;;18.28;100.00;99960.88;3056751;19;949;-51
2022/08/28 00:28:22;;;;;;;;;;;;;;;18.28;100.00;99962.72;3057222;19;968;-49
2022/08/28 00:29:25;;;;;;;;;;;;;;;18.28;100.00;99960.88;3056975;19;882;-51
2022/08/28 00:30:31;;;;;;;;;;;;;;;18.27;100.00;99959.19;3058129;19;936;-49
2022/08/28 00:31:36;;;;;;;;;;;;;;;18.27;100.00;99948.38;3057643;19;869;-51
2022/08/28 00:32:38;;;;;;;;;;;;;;;18.28;100.00;99960.03;3057671;19;893;-48
2022/08/28 00:33:42;;;;;;;;;;;;;;;18.27;100.00;99947.53;3057578;19;964;-49
2022/08/28 00:34:44;;;;;;;;;;;;;;;18.26;100.00;99954.78;3057903;19;873;-51
2022/08/28 00:35:49;;;;;;;;;;;;;;;18.20;100.00;99941.91;3057469;19;957;-49
2022/08/28 00:36:51;;;;;;;;;;;;;;;18.25;100.00;99950.38;3057746;19;937;-50
2022/08/28 00:37:56;;;;;;;;;;;;;;;18.24;100.00;99942.44;3057293;19;850;-50
2022/08/28 00:38:59;;;;;;;;;;;;;;;18.22;100.00;99945.31;3057881;19;1128;-50
2022/08/28 00:40:03;;;;;;;;;;;;;;;18.21;100.00;99954.41;3057551;19;1056;-49
2022/08/28 00:41:06;;;;;;;;;;;;;;;18.19;100.00;99942.06;3057691;19;1012;-49
2022/08/28 00:42:11;;;;;;;;;;;;;;;18.18;100.00;99943.91;3057113;19;1846;-50
2022/08/28 00:43:25;;;;;;;;;;;;;;;18.17;100.00;99942.22;3057929;19;972;-49
2022/08/28 00:44:30;;;;;;;;;;;;;;;18.13;100.00;99940.81;3056889;19;1012;-49
2022/08/28 00:45:32;;;;;;;;;;;;;;;18.12;100.00;99941.81;3056883;19;961;-49
2022/08/28 00:46:43;;;;;;;;;;;;;;;18.12;100.00;99946.38;3056747;19;948;-50
2022/08/28 00:47:45;;;;;;;;;;;;;;;18.13;100.00;99940.81;3057583;19;965;-51
2022/08/28 00:48:50;;;;;;;;;;;;;;;18.15;100.00;99949.63;3056792;19;896;-50
2022/08/28 00:49:52;;;;;;;;;;;;;;;18.17;100.00;99949.47;3056879;19;897;-51
2022/08/28 00:52:14;;;;;;;;;;;;;;;18.20;100.00;99941.91;3057657;19;873;-49
2022/08/28 00:53:17;;;;;;;;;;;;;;;18.25;100.00;99938.72;3057524;19;996;-50
2022/08/28 00:54:19;;;;;;;;;;;;;;;18.29;100.00;99949.06;3057629;19;1698;-49
2022/08/28 00:55:25;;;;;;;;;;;;;;;18.32;100.00;99956.88;3056669;19;1020;-49
2022/08/28 00:56:28;;;;;;;;;;;;;;;18.36;100.00;99950.13;3056730;19;1089;-49
2022/08/28 00:57:37;;;;;;;;;;;;;;;18.42;100.00;99964.03;3056650;19;1692;-51
2022/08/28 00:58:39;;;;;;;;;;;;;;;18.47;100.00;99953.59;3056644;19;928;-49
2022/08/28 00:59:44;;;;;;;;;;;;;;;18.49;100.00;99959.69;3056883;19;964;-49
2022/08/28 01:00:48;;;;;;;;;;;;;;;18.51;100.00;99960.38;3057368;19;1047;-49
2022/08/28 01:01:55;;;;;;;;;;;;;;;18.52;100.00;99951.25;3056721;19;1842;-51
2022/08/28 01:02:57;;;;;;;;;;;;;;;18.53;100.00;99958.34;3056310;19;937;-51
2022/08/28 01:04:04;;;;;;;;;;;;;;;18.56;100.00;99955.34;3056778;19;853;-50
2022/08/28 01:05:08;;;;;;;;;;;;;;;18.55;100.00;99957.19;3057234;19;921;-52
2022/08/28 01:06:13;;;;;;;;;;;;;;;18.56;100.00;99958.06;3056733;19;897;-50
2022/08/28 01:07:16;;;;;;;;;;;;;;;18.53;100.00;99961.91;3056586;19;878;-51
2022/08/28 01:08:20;;;;;;;;;;;;;;;18.51;100.00;99954.97;3056702;19;1061;-49
2022/08/28 01:09:29;;;;;;;;;;;;;;;18.48;100.00;99949.88;3055999;19;1002;-52
2022/08/28 01:10:34;;;;;;;;;;;;;;;18.47;100.00;99953.59;3057590;19;964;-50
2022/08/28 01:11:36;;;;;;;;;;;;;;;18.44;100.00;99954.75;3056502;19;897;-49
2022/08/28 01:12:42;;;;;;;;;;;;;;;18.43;100.00;99952.22;3056579;19;945;-49
2022/08/28 01:13:45;;;;;;;;;;;;;;;18.39;100.00;99940.88;3056507;19;1788;-51
2022/08/28 01:14:51;;;;;;;;;;;;;;;18.35;100.00;99943.03;3056738;19;1004;-50
2022/08/28 01:15:53;;;;;;;;;;;;;;;18.33;100.00;99944.22;3056038;19;1032;-51
2022/08/28 01:16:57;;;;;;;;;;;;;;;18.31;100.00;99943.50;3056535;19;1016;-51
2022/08/28 01:18:00;;;;;;;;;;;;;;;18.26;100.00;99938.56;3056533;19;941;-51
2022/08/28 01:19:12;;;;;;;;;;;;;;;18.24;100.00;99937.88;3056747;19;933;-51
2022/08/28 01:20:16;;;;;;;;;;;;;;;18.20;100.00;99936.50;3056531;19;1206;-50
2022/08/28 01:21:23;;;;;;;;;;;;;;;18.19;100.00;99934.81;3056812;19;878;-50
2022/08/28 01:22:30;;;;;;;;;;;;;;;18.16;100.00;99939.69;3055931;19;1846;-49
2022/08/28 01:23:46;;;;;;;;;;;;;;;18.15;100.00;99946.94;3056260;19;956;-50
2022/08/28 01:24:49;;;;;;;;;;;;;;;18.12;100.00;99939.13;3056572;19;1225;-49
2022/08/28 01:25:54;;;;;;;;;;;;;;;18.10;100.00;99932.22;3056220;19;960;-49
2022/08/28 01:26:55;;;;;;;;;;;;;;;18.08;100.00;99943.16;3057345;19;1523;-51
2022/08/28 01:28:00;;;;;;;;;;;;;;;18.06;100.00;99945.16;3056065;19;969;-52
2022/08/28 01:29:02;;;;;;;;;;;;;;;18.04;100.00;99940.91;3056529;19;963;-49
2022/08/28 01:30:06;;;;;;;;;;;;;;;18.03;100.00;99931.97;3056528;19;1668;-49
2022/08/28 01:31:09;;;;;;;;;;;;;;;18.00;100.00;99945.78;3057147;19;1044;-49
2022/08/28 01:32:14;;;;;;;;;;;;;;;17.98;100.00;99942.41;3056040;19;929;-51
2022/08/28 01:33:16;;;;;;;;;;;;;;;17.95;100.00;99943.56;3056225;19;962;-48
2022/08/28 01:34:21;;;;;;;;;;;;;;;17.92;100.00;99945.72;3057160;19;929;-51
2022/08/28 01:35:24;;;;;;;;;;;;;;;17.92;100.00;99943.00;3057249;19;945;-50
2022/08/28 01:36:29;;;;;;;;;;;;;;;17.84;100.00;99932.16;3056869;19;1007;-51
2022/08/28 01:37:31;;;;;;;;;;;;;;;17.88;100.00;99947.00;3058144;19;854;-49
2022/08/28 01:38:35;;;;;;;;;;;;;;;17.87;100.00;99939.94;3060244;19;1589;-50
2022/08/28 01:39:37;;;;;;;;;;;;;;;17.86;100.00;99943.63;3059510;19;873;-50
2022/08/28 01:40:43;;;;;;;;;;;;;;;17.78;100.00;99924.66;3059534;19;1212;-51
2022/08/28 01:41:46;;;;;;;;;;;;;;;17.83;100.00;99943.94;3060378;19;1213;-50
2022/08/28 01:42:50;;;;;;;;;;;;;;;17.80;100.00;99936.16;3059351;19;1846;-51
2022/08/28 01:43:53;;;;;;;;;;;;;;;17.79;100.00;99942.53;3060398;19;968;-50
2022/08/28 01:44:58;;;;;;;;;;;;;;;17.77;100.00;99934.59;3059633;19;1739;-49
2022/08/28 01:46:00;;;;;;;;;;;;;;;17.76;100.00;99942.84;3059905;19;908;-49
2022/08/28 01:47:05;;;;;;;;;;;;;;;17.75;100.00;99943.88;3059940;19;959;-49
2022/08/28 01:48:07;;;;;;;;;;;;;;;17.73;100.00;99932.38;3060493;19;904;-48
2022/08/28 01:49:12;;;;;;;;;;;;;;;17.73;100.00;99940.47;3060455;19;887;-49
2022/08/28 01:50:15;;;;;;;;;;;;;;;17.72;100.00;99944.19;3060343;19;877;-50
2022/08/28 01:51:19;;;;;;;;;;;;;;;17.71;100.00;99935.22;3059928;19;1027;-49
2022/08/28 01:52:25;;;;;;;;;;;;;;;17.70;100.00;99938.94;3060380;19;967;-50
2022/08/28 01:53:30;;;;;;;;;;;;;;;17.70;100.00;99938.94;3059096;19;1224;-49
2022/08/28 01:54:33;;;;;;;;;;;;;;;17.68;100.00;99929.28;3059540;19;805;-50
2022/08/28 01:55:39;;;;;;;;;;;;;;;17.66;100.00;99936.69;3059275;19;1247;-49
2022/08/28 01:56:41;;;;;;;;;;;;;;;17.64;100.00;99934.97;3060110;19;1043;-50
2022/08/28 01:57:48;;;;;;;;;;;;;;;17.62;100.00;99928.03;3060135;19;1574;-50
2022/08/28 01:58:51;;;;;;;;;;;;;;;17.61;100.00;99935.28;3059510;19;904;-50
2022/08/28 01:59:55;;;;;;;;;;;;;;;17.60;100.00;99928.19;3058886;19;987;-49
2022/08/28 02:00:57;;;;;;;;;;;;;;;17.59;100.00;99934.56;3059994;19;937;-49
2022/08/28 02:02:02;;;;;;;;;;;;;;;17.57;100.00;99927.63;3058820;19;1313;-51
2022/08/28 02:03:05;;;;;;;;;;;;;;;17.55;100.00;99925.06;3058283;19;1865;-50
2022/08/28 02:04:10;;;;;;;;;;;;;;;17.54;100.00;99938.72;3059446;19;889;-52
2022/08/28 02:05:13;;;;;;;;;;;;;;;17.52;100.00;99935.31;3059819;19;1330;-50
2022/08/28 02:06:17;;;;;;;;;;;;;;;17.42;100.00;99915.66;3059962;19;911;-49
2022/08/28 02:07:22;;;;;;;;;;;;;;;17.47;100.00;99932.25;3059946;19;886;-49
2022/08/28 02:08:24;;;;;;;;;;;;;;;17.45;100.00;99921.59;3060174;19;889;-49
2022/08/28 02:09:28;;;;;;;;;;;;;;;17.46;100.00;99926.00;3058592;19;1072;-49
2022/08/28 02:10:31;;;;;;;;;;;;;;;17.44;100.00;99930.69;3059996;19;1250;-50
2022/08/28 02:11:35;;;;;;;;;;;;;;;17.43;100.00;99931.69;3059591;19;1091;-48
2022/08/28 02:12:42;;;;;;;;;;;;;;;17.41;100.00;99928.28;3060072;19;952;-51
2022/08/28 02:13:47;;;;;;;;;;;;;;;17.41;100.00;99922.03;3059329;19;980;-50
2022/08/28 02:14:51;;;;;;;;;;;;;;;17.39;100.00;99930.28;3060021;19;859;-50
2022/08/28 02:15:56;;;;;;;;;;;;;;;17.38;100.00;99919.69;3059734;19;1039;-51
2022/08/28 02:16:58;;;;;;;;;;;;;;;17.37;100.00;99921.53;3059885;19;890;-49
2022/08/28 02:18:02;;;;;;;;;;;;;;;17.36;100.00;99914.44;3059080;19;972;-50
2022/08/28 02:19:04;;;;;;;;;;;;;;;17.37;100.00;99917.97;3059112;19;873;-49
2022/08/28 02:20:09;;;;;;;;;;;;;;;17.34;100.00;99921.81;3059413;19;884;-50
2022/08/28 02:21:11;;;;;;;;;;;;;;;17.32;100.00;99923.81;3059900;19;949;-49
2022/08/28 02:22:16;;;;;;;;;;;;;;;17.32;100.00;99912.16;3059875;19;937;-49
2022/08/28 02:23:18;;;;;;;;;;;;;;;17.29;100.00;99907.91;3059080;19;1851;-50
2022/08/28 02:24:22;;;;;;;;;;;;;;;17.27;100.00;99916.16;3059591;19;893;-50
2022/08/28 02:25:24;;;;;;;;;;;;;;;17.25;100.00;99926.28;3059953;19;1202;-51
2022/08/28 02:26:30;;;;;;;;;;;;;;;17.24;100.00;99921.03;3059396;19;1020;-50
2022/08/28 02:27:32;;;;;;;;;;;;;;;17.23;100.00;99920.19;3060012;19;869;-51
2022/08/28 02:28:36;;;;;;;;;;;;;;;17.22;100.00;99923.03;3059257;19;893;-50
2022/08/28 02:29:38;;;;;;;;;;;;;;;17.20;100.00;99923.16;3059828;19;837;-51
2022/08/28 02:30:43;;;;;;;;;;;;;;;17.17;100.00;99918.06;3059529;19;893;-48
2022/08/28 02:31:44;;;;;;;;;;;;;;;17.16;100.00;99923.59;3059678;19;1019;-52
2022/08/28 02:32:49;;;;;;;;;;;;;;;17.14;100.00;99922.94;3059566;19;972;-51
2022/08/28 02:33:54;;;;;;;;;;;;;;;17.11;100.00;99918.69;3059607;19;1203;-48
2022/08/28 02:34:56;;;;;;;;;;;;;;;17.10;100.00;99924.22;3059367;19;1242;-51
2022/08/28 02:36:01;;;;;;;;;;;;;;;17.07;100.00;99919.97;3058995;19;834;-51
2022/08/28 02:37:03;;;;;;;;;;;;;;;17.06;100.00;99917.41;3058769;19;976;-49
2022/08/28 02:38:08;;;;;;;;;;;;;;;17.04;100.00;99912.19;3059494;19;965;-50
2022/08/28 02:39:10;;;;;;;;;;;;;;;17.03;100.00;99906.94;3059317;19;1007;-50
2022/08/28 02:41:44;;;;;;;;;;;;;;;17.00;100.00;99901.88;3047715;19;1886;-51
2022/08/28 02:42:46;;;;;;;;;;;;;;;16.98;100.00;99909.25;3058353;19;1628;-48
2022/08/28 02:43:51;;;;;;;;;;;;;;;16.98;100.00;99914.63;3058995;19;1838;-48
2022/08/28 02:44:53;;;;;;;;;;;;;;;16.98;100.00;99909.25;3058203;19;1031;-47
2022/08/28 02:45:57;;;;;;;;;;;;;;;16.96;100.00;99911.25;3058826;19;1054;-47
2022/08/28 02:46:59;;;;;;;;;;;;;;;16.94;100.00;99914.06;3060314;19;1287;-47
2022/08/28 02:48:04;;;;;;;;;;;;;;;16.93;100.00;99905.13;3059038;19;1242;-47
2022/08/28 02:49:19;;;;;;;;;;;;;;;16.91;100.00;99909.81;3057101;19;897;-48
2022/08/28 02:50:21;;;;;;;;;;;;;;;16.91;100.00;99906.28;3058906;19;884;-48
2022/08/28 02:51:26;;;;;;;;;;;;;;;16.90;100.00;99910.81;3058540;19;963;-48
2022/08/28 02:52:27;;;;;;;;;;;;;;;16.90;100.00;99902.72;3058896;19;876;-47
2022/08/28 02:53:32;;;;;;;;;;;;;;;16.89;100.00;99906.47;3058724;19;928;-47
2022/08/28 02:54:35;;;;;;;;;;;;;;;16.89;100.00;99906.47;3058842;19;924;-48
2022/08/28 02:55:39;;;;;;;;;;;;;;;16.88;100.00;99902.06;3058462;19;1768;-49
2022/08/28 02:56:41;;;;;;;;;;;;;;;16.88;100.00;99898.53;3058932;19;967;-47
2022/08/28 02:57:46;;;;;;;;;;;;;;;16.87;100.00;99900.38;3058593;19;1118;-47
2022/08/28 02:58:48;;;;;;;;;;;;;;;16.87;100.00;99903.06;3058676;19;949;-46
2022/08/28 02:59:52;;;;;;;;;;;;;;;16.87;100.00;99904.91;3058374;19;1777;-47
2022/08/28 03:00:55;;;;;;;;;;;;;;;16.88;100.00;99906.59;3058704;19;956;-47
2022/08/28 03:02:02;;;;;;;;;;;;;;;16.88;100.00;99898.53;3059955;19;1017;-48
2022/08/28 03:03:04;;;;;;;;;;;;;;;16.88;100.00;99899.38;3058716;19;924;-49
2022/08/28 03:04:09;;;;;;;;;;;;;;;16.88;100.00;99907.44;3057863;19;1858;-48
2022/08/28 03:05:11;;;;;;;;;;;;;;;16.87;100.00;99908.44;3058331;19;1145;-46
2022/08/28 03:06:16;;;;;;;;;;;;;;;16.87;100.00;99897.66;3058815;19;925;-49
2022/08/28 03:07:18;;;;;;;;;;;;;;;16.85;100.00;99896.09;3058464;19;953;-47
2022/08/28 03:08:23;;;;;;;;;;;;;;;16.85;100.00;99899.66;3058766;19;889;-48
2022/08/28 03:09:28;;;;;;;;;;;;;;;16.85;100.00;99901.50;3058433;19;947;-47
2022/08/28 03:10:33;;;;;;;;;;;;;;;16.85;100.00;99901.50;3058659;19;897;-47
2022/08/28 03:11:35;;;;;;;;;;;;;;;16.84;100.00;99902.50;3058541;19;927;-48
2022/08/28 03:12:40;;;;;;;;;;;;;;;16.83;100.00;99896.25;3058795;19;892;-49
2022/08/28 03:13:42;;;;;;;;;;;;;;;16.82;100.00;99894.56;3058696;19;818;-48
2022/08/28 03:14:46;;;;;;;;;;;;;;;16.81;100.00;99892.84;3058640;19;857;-49
2022/08/28 03:15:48;;;;;;;;;;;;;;;16.79;100.00;99905.63;3058269;19;960;-48
2022/08/28 03:17:00;;;;;;;;;;;;;;;16.78;100.00;99901.25;3058548;19;1760;-47
2022/08/28 03:18:02;;;;;;;;;;;;;;;16.76;100.00;99895.16;3058345;19;963;-48
2022/08/28 03:19:14;;;;;;;;;;;;;;;16.75;100.00;99898.84;3058545;19;1011;-48
2022/08/28 03:20:16;;;;;;;;;;;;;;;16.73;100.00;99898.16;3058567;19;932;-47
2022/08/28 03:21:20;;;;;;;;;;;;;;;16.72;100.00;99898.28;3058568;19;904;-48
2022/08/28 03:23:25;;;;;;;;;;;;;;;16.71;100.00;99902.84;3059096;19;750;-48
2022/08/28 03:23:44;;;;;;;;;;;;;;;16.68;100.00;99900.44;3058151;19;2020;-47
2022/08/28 03:24:49;;;;;;;;;;;;;;;16.68;100.00;99902.25;3058011;19;968;-48
2022/08/28 03:25:51;;;;;;;;;;;;;;;16.64;100.00;99896.34;3058471;19;876;-48
2022/08/28 03:26:56;;;;;;;;;;;;;;;16.63;100.00;99900.03;3058288;19;912;-47
2022/08/28 03:27:57;;;;;;;;;;;;;;;16.61;100.00;99896.59;3058230;19;1039;-47
2022/08/28 03:29:02;;;;;;;;;;;;;;;16.58;100.00;99886.97;3058353;19;876;-48
2022/08/28 03:30:05;;;;;;;;;;;;;;;16.57;100.00;99890.66;3058422;19;873;-48
2022/08/28 03:31:12;;;;;;;;;;;;;;;16.56;100.00;99885.41;3058275;19;937;-48
2022/08/28 03:32:13;;;;;;;;;;;;;;;16.58;100.00;99880.72;3058114;19;983;-49
2022/08/28 03:33:18;;;;;;;;;;;;;;;16.58;100.00;99891.50;3058290;19;1015;-47
2022/08/28 03:34:20;;;;;;;;;;;;;;;16.59;100.00;99893.19;3058246;19;1015;-49
2022/08/28 03:35:24;;;;;;;;;;;;;;;16.58;100.00;99886.13;3058367;19;948;-49
2022/08/28 03:36:29;;;;;;;;;;;;;;;16.60;100.00;99888.66;3058252;19;952;-50
2022/08/28 03:37:31;;;;;;;;;;;;;;;16.60;100.00;99884.13;3058293;19;923;-47
2022/08/28 03:38:35;;;;;;;;;;;;;;;16.61;100.00;99884.97;3058147;19;1629;-48
2022/08/28 03:39:37;;;;;;;;;;;;;;;16.60;100.00;99886.81;3058096;19;1023;-47
2022/08/28 03:40:42;;;;;;;;;;;;;;;16.60;100.00;99892.22;3057972;19;944;-49
2022/08/28 03:41:46;;;;;;;;;;;;;;;16.61;100.00;99885.81;3057541;19;1120;-48
2022/08/28 03:42:50;;;;;;;;;;;;;;;16.61;100.00;99879.59;3058083;19;1789;-47
2022/08/28 03:43:56;;;;;;;;;;;;;;;16.62;100.00;99881.28;3058338;19;952;-47
2022/08/28 03:45:00;;;;;;;;;;;;;;;16.64;100.00;99890.97;3057999;19;881;-49
2022/08/28 03:46:06;;;;;;;;;;;;;;;16.65;100.00;99887.28;3058007;19;784;-47
2022/08/28 03:47:09;;;;;;;;;;;;;;;16.66;100.00;99894.38;3057882;19;972;-47
2022/08/28 03:48:13;;;;;;;;;;;;;;;16.67;100.00;99896.03;3057971;19;972;-46
2022/08/28 03:49:15;;;;;;;;;;;;;;;16.68;100.00;99892.34;3057906;19;913;-46
2022/08/28 03:50:22;;;;;;;;;;;;;;;16.71;100.00;99891.19;3058062;19;1051;-47
2022/08/28 03:51:29;;;;;;;;;;;;;;;16.75;100.00;99892.63;3057985;19;1804;-47
2022/08/28 03:52:31;;;;;;;;;;;;;;;16.80;100.00;99890.31;3058133;19;948;-47
2022/08/28 03:53:36;;;;;;;;;;;;;;;16.82;100.00;99894.56;3057888;19;877;-47
2022/08/28 03:54:38;;;;;;;;;;;;;;;16.88;100.00;99899.38;3057970;19;1166;-48
2022/08/28 03:55:43;;;;;;;;;;;;;;;16.91;100.00;99899.03;3057783;19;956;-47
2022/08/28 03:56:46;;;;;;;;;;;;;;;16.95;100.00;99907.69;3058165;19;869;-47
2022/08/28 03:57:50;;;;;;;;;;;;;;;16.99;100.00;99911.78;3057823;19;885;-47
2022/08/28 03:58:54;;;;;;;;;;;;;;;17.03;100.00;99906.94;3058282;19;893;-47
2022/08/28 03:59:59;;;;;;;;;;;;;;;17.06;100.00;99922.81;3056826;19;973;-46
2022/08/28 04:01:01;;;;;;;;;;;;;;;17.09;100.00;99917.13;3056965;19;842;-47
2022/08/28 04:02:06;;;;;;;;;;;;;;;17.13;100.00;99913.16;3057692;19;983;-48
2022/08/28 04:03:08;;;;;;;;;;;;;;;17.18;100.00;99927.00;3057959;19;988;-46
2022/08/28 04:04:12;;;;;;;;;;;;;;;17.21;100.00;99921.31;3057737;19;873;-48
2022/08/28 04:05:15;;;;;;;;;;;;;;;17.26;100.00;99916.34;3057645;19;972;-47
2022/08/28 04:06:19;;;;;;;;;;;;;;;17.31;100.00;99927.50;3057535;19;897;-47
2022/08/28 04:07:21;;;;;;;;;;;;;;;17.35;100.00;99914.56;3057665;19;1043;-49
2022/08/28 04:08:26;;;;;;;;;;;;;;;17.41;100.00;99920.19;3057409;19;1139;-48
2022/08/28 04:09:28;;;;;;;;;;;;;;;17.46;100.00;99920.59;3057861;19;979;-46
2022/08/28 04:10:32;;;;;;;;;;;;;;;17.53;100.00;99929.78;3057372;19;928;-48
2022/08/28 04:11:39;;;;;;;;;;;;;;;17.73;100.00;99935.06;3057720;19;809;-49
2022/08/28 04:12:43;;;;;;;;;;;;;;;17.98;100.00;99931.59;3057413;19;995;-49
2022/08/28 04:13:45;;;;;;;;;;;;;;;18.20;100.00;99936.50;3057595;19;1286;-48
2022/08/28 04:14:50;;;;;;;;;;;;;;;18.42;100.00;99955.91;3057607;19;927;-47
2022/08/28 04:16:15;;;;;;;;;;;;;;;18.59;100.00;99965.88;3057653;19;945;-48
2022/08/28 04:17:17;;;;;;;;;;;;;;;18.82;100.00;99969.75;3057743;19;881;-47
2022/08/28 04:18:21;;;;;;;;;;;;;;;18.99;100.00;99981.50;3057408;19;1149;-47
2022/08/28 04:19:25;;;;;;;;;;;;;;;19.19;100.00;99974.00;3057652;19;1765;-48
2022/08/28 04:20:30;;;;;;;;;;;;;;;19.38;100.00;99976.44;3057234;19;988;-48
2022/08/28 04:21:32;;;;;;;;;;;;;;;19.61;100.00;99984.84;3057682;19;874;-48
2022/08/28 04:22:36;;;;;;;;;;;;;;;19.82;100.00;99989.78;3057362;19;893;-46
2022/08/28 04:23:41;;;;;;;;;;;;;;;20.02;100.00;99992.03;3057797;19;880;-47
2022/08/28 04:24:45;;;;;;;;;;;;;;;20.25;100.00;99997.66;3057027;19;1849;-47
2022/08/28 04:25:47;;;;;;;;;;;;;;;20.45;100.00;99999.03;3057558;19;1148;-48
2022/08/28 04:26:52;;;;;;;;;;;;;;;20.66;100.00;100005.78;3057405;19;865;-47
2022/08/28 04:27:54;;;;;;;;;;;;;;;20.88;100.00;100005.09;3057728;19;901;-48
2022/08/28 04:28:58;;;;;;;;;;;;;;;21.08;100.00;100014.53;3057159;19;972;-48
2022/08/28 04:30:00;;;;;;;;;;;;;;;21.26;100.00;100019.78;3057545;19;1757;-49
2022/08/28 04:31:06;;;;;;;;;;;;;;;21.43;100.00;100015.16;3057228;19;847;-47
2022/08/28 04:32:08;;;;;;;;;;;;;;;21.59;100.00;100025.94;3056631;19;968;-47
2022/08/28 04:33:13;;;;;;;;;;;;;;;21.71;100.00;100019.09;3056428;19;976;-48
2022/08/28 04:34:15;;;;;;;;;;;;;;;21.82;100.00;100028.72;3057360;19;995;-49
2022/08/28 04:35:19;;;;;;;;;;;;;;;21.90;100.00;100029.50;3057235;19;980;-47
2022/08/28 04:36:21;;;;;;;;;;;;;;;21.95;100.00;100026.25;3057460;19;978;-48
2022/08/28 04:37:26;;;;;;;;;;;;;;;21.98;100.00;100025.06;3057493;19;880;-46
2022/08/28 04:38:28;;;;;;;;;;;;;;;21.97;100.00;100017.94;3057354;19;1832;-48
2022/08/28 04:39:33;;;;;;;;;;;;;;;21.91;100.00;100020.34;3057084;19;1414;-48
2022/08/28 04:40:38;;;;;;;;;;;;;;;21.80;100.00;100017.19;3057301;19;1035;-46
2022/08/28 04:41:42;;;;;;;;;;;;;;;21.64;100.00;100012.66;3056686;19;1152;-48
2022/08/28 04:42:46;;;;;;;;;;;;;;;21.50;100.00;100010.69;3057326;19;1169;-48
2022/08/28 04:43:51;;;;;;;;;;;;;;;21.40;100.00;100010.91;3057262;19;913;-48
2022/08/28 04:44:58;;;;;;;;;;;;;;;21.37;100.00;100010.44;3057258;19;1873;-49
2022/08/28 04:46:06;;;;;;;;;;;;;;;21.32;100.00;100012.81;3057076;19;965;-48
2022/08/28 04:47:08;;;;;;;;;;;;;;;21.27;100.00;100015.19;3057152;19;1031;-48
2022/08/28 04:48:13;;;;;;;;;;;;;;;21.25;100.00;100014.53;3057095;19;884;-46
2022/08/28 04:49:16;;;;;;;;;;;;;;;21.20;100.00;100007.75;3057306;19;972;-49
2022/08/28 04:50:20;;;;;;;;;;;;;;;21.16;100.00;100009.09;3057162;19;910;-47
2022/08/28 04:51:22;;;;;;;;;;;;;;;21.13;100.00;100006.72;3057310;19;901;-47
2022/08/28 04:52:27;;;;;;;;;;;;;;;21.12;100.00;100002.34;3057091;19;979;-47
2022/08/28 04:53:29;;;;;;;;;;;;;;;21.10;100.00;100012.50;3056994;19;933;-47
2022/08/28 04:54:34;;;;;;;;;;;;;;;21.09;100.00;100002.69;3057338;19;931;-46
2022/08/28 04:55:40;;;;;;;;;;;;;;;21.08;100.00;100006.41;3057162;19;901;-49
2022/08/28 04:56:58;;;;;;;;;;;;;;;21.07;100.00;99999.28;3057276;19;956;-48
2022/08/28 04:58:00;;;;;;;;;;;;;;;21.09;100.00;100001.84;3056914;19;988;-48
2022/08/28 04:59:05;;;;;;;;;;;;;;;21.10;100.00;99998.94;3057357;19;931;-48
2022/08/28 05:00:08;;;;;;;;;;;;;;;21.12;100.00;100004.19;3056985;19;1019;-48
2022/08/28 05:01:17;;;;;;;;;;;;;;;21.14;100.00;100010.28;3057224;19;888;-47
2022/08/28 05:02:19;;;;;;;;;;;;;;;21.15;100.00;100010.09;3056964;19;1068;-48
2022/08/28 05:03:24;;;;;;;;;;;;;;;21.19;100.00;100014.22;3057176;19;1198;-49
2022/08/28 05:04:26;;;;;;;;;;;;;;;21.23;100.00;100008.44;3056988;19;944;-47
2022/08/28 05:05:31;;;;;;;;;;;;;;;21.26;100.00;100013.50;3056775;19;1858;-49
2022/08/28 05:06:32;;;;;;;;;;;;;;;21.29;100.00;100013.16;3056808;19;979;-48
2022/08/28 05:07:37;;;;;;;;;;;;;;;21.30;100.00;100010.28;3057303;19;916;-47
2022/08/28 05:08:39;;;;;;;;;;;;;;;21.27;100.00;100005.19;3056529;19;1741;-47
2022/08/28 05:09:43;;;;;;;;;;;;;;;21.34;100.00;100022.47;3056988;19;1225;-49
2022/08/28 05:10:45;;;;;;;;;;;;;;;21.38;100.00;100012.09;3056639;19;1033;-47
2022/08/28 05:11:52;;;;;;;;;;;;;;;21.41;100.00;100017.19;3057180;19;1369;-48
2022/08/28 05:12:54;;;;;;;;;;;;;;;21.44;100.00;100027.69;3055444;19;1023;-47
2022/08/28 05:13:58;;;;;;;;;;;;;;;21.46;100.00;100014.81;3056907;19;980;-48
2022/08/28 05:15:00;;;;;;;;;;;;;;;21.49;100.00;100015.28;3056714;19;956;-49
2022/08/28 05:16:05;;;;;;;;;;;;;;;21.54;100.00;100022.91;3057015;19;869;-49
2022/08/28 05:17:09;;;;;;;;;;;;;;;21.60;100.00;100021.38;3056772;19;931;-48
2022/08/28 05:18:12;;;;;;;;;;;;;;;21.64;100.00;100023.53;3056928;19;873;-49
2022/08/28 05:19:18;;;;;;;;;;;;;;;21.66;100.00;100021.47;3056731;19;1031;-49
2022/08/28 05:20:19;;;;;;;;;;;;;;;21.70;100.00;100016.56;3056947;19;889;-48
2022/08/28 05:21:24;;;;;;;;;;;;;;;21.74;100.00;100020.59;3056704;19;901;-49
2022/08/28 05:22:27;;;;;;;;;;;;;;;21.76;100.00;100013.13;3056776;19;1071;-49
2022/08/28 05:23:32;;;;;;;;;;;;;;;21.80;100.00;100023.47;3056616;19;959;-50
2022/08/28 05:24:36;;;;;;;;;;;;;;;21.83;100.00;100017.69;3056977;19;924;-48
2022/08/28 05:25:39;;;;;;;;;;;;;;;21.89;100.00;100016.94;3056745;19;1849;-49
2022/08/28 05:26:44;;;;;;;;;;;;;;;21.92;100.00;100018.47;3056786;19;1035;-48
2022/08/28 05:27:49;;;;;;;;;;;;;;;21.97;100.00;100017.94;3056718;19;900;-48
2022/08/28 05:28:55;;;;;;;;;;;;;;;22.00;100.00;100025.75;3056785;19;1370;-47
2022/08/28 05:29:57;;;;;;;;;;;;;;;22.04;100.00;100019.78;3056882;19;917;-49
2022/08/28 05:31:32;;;;;;;;;;;;;;;22.09;100.00;100022.81;3056478;19;1001;-46
2022/08/28 05:32:34;;;;;;;;;;;;;;;22.16;100.00;100022.94;3056312;19;1616;-49
2022/08/28 05:33:38;;;;;;;;;;;;;;;22.20;100.00;100025.13;3056712;19;932;-48
2022/08/28 05:34:40;;;;;;;;;;;;;;;22.25;100.00;100025.41;3056760;19;1023;-47
2022/08/28 05:35:46;;;;;;;;;;;;;;;22.28;100.00;100032.34;3056429;19;1134;-48
2022/08/28 05:36:47;;;;;;;;;;;;;;;22.33;100.00;100029.97;3056864;19;952;-48
2022/08/28 05:37:53;;;;;;;;;;;;;;;22.37;100.00;100028.53;3056309;19;988;-46
2022/08/28 05:38:56;;;;;;;;;;;;;;;22.44;100.00;100036.84;3056880;19;889;-48
2022/08/28 05:40:00;;;;;;;;;;;;;;;22.46;100.00;100030.16;3056552;19;968;-47